createdAt,value
2023-02-27T00:00:09.187Z,928.16
2023-02-27T00:01:09.132Z,928.17
2023-02-27T00:02:09.137Z,928.20
2023-02-27T00:03:09.157Z,928.21
2023-02-27T00:04:09.172Z,928.22
2023-02-27T00:05:09.120Z,928.23
2023-02-27T00:06:09.073Z,928.24
2023-02-27T00:07:09.166Z,928.23
2023-02-27T00:08:09.087Z,928.23
2023-02-27T00:09:09.203Z,928.22
2023-02-27T00:10:10.085Z,928.20
2023-02-27T00:11:09.057Z,928.18
2023-02-27T00:12:09.121Z,928.17
2023-02-27T00:13:09.081Z,928.19
2023-02-27T00:14:09.024Z,928.24
2023-02-27T00:15:09.030Z,928.32
2023-02-27T00:16:10.752Z,928.40
2023-02-27T00:17:09.003Z,928.46
2023-02-27T00:18:08.961Z,928.50
2023-02-27T00:19:08.975Z,928.52
2023-02-27T00:20:08.963Z,928.53
2023-02-27T00:21:09.026Z,928.55
2023-02-27T00:22:08.934Z,928.59
2023-02-27T00:23:08.938Z,928.64
2023-02-27T00:24:08.946Z,928.71
2023-02-27T00:25:08.903Z,928.78
2023-02-27T00:26:08.909Z,928.86
2023-02-27T00:27:08.909Z,928.94
2023-02-27T00:28:08.877Z,929.00
2023-02-27T00:29:08.826Z,929.06
2023-02-27T00:30:08.886Z,929.11
2023-02-27T00:31:08.880Z,929.15
2023-02-27T00:32:08.956Z,929.19
2023-02-27T00:33:08.911Z,929.22
2023-02-27T00:34:08.788Z,929.25
2023-02-27T00:35:08.760Z,929.28
2023-02-27T00:36:08.773Z,929.31
2023-02-27T00:37:08.779Z,929.33
2023-02-27T00:38:08.775Z,929.35
2023-02-27T00:39:08.817Z,929.38
2023-02-27T00:40:08.725Z,929.40
2023-02-27T00:41:08.701Z,929.42
2023-02-27T00:42:08.814Z,929.43
2023-02-27T00:43:08.709Z,929.44
2023-02-27T00:44:08.721Z,929.44
2023-02-27T00:45:08.724Z,929.42
2023-02-27T00:46:08.664Z,929.41
2023-02-27T00:47:08.643Z,929.42
2023-02-27T00:48:08.675Z,929.44
2023-02-27T00:49:08.632Z,929.46
2023-02-27T00:50:08.626Z,929.48
2023-02-27T00:51:08.646Z,929.49
2023-02-27T00:52:08.598Z,929.49
2023-02-27T00:53:08.604Z,929.49
2023-02-27T00:54:08.583Z,929.49
2023-02-27T00:55:08.632Z,929.50
2023-02-27T00:56:08.569Z,929.52
2023-02-27T00:57:08.597Z,929.56
2023-02-27T00:58:08.530Z,929.58
2023-02-27T00:59:08.544Z,929.60
2023-02-27T01:00:08.503Z,929.60
2023-02-27T01:01:08.603Z,929.60
2023-02-27T01:02:08.467Z,929.60
2023-02-27T01:03:08.479Z,929.59
2023-02-27T01:04:08.448Z,929.59
2023-02-27T01:05:08.480Z,929.59
2023-02-27T01:06:08.491Z,929.58
2023-02-27T01:07:08.492Z,929.59
2023-02-27T01:08:08.405Z,929.59
2023-02-27T01:09:08.415Z,929.59
2023-02-27T01:10:08.413Z,929.59
2023-02-27T01:11:08.420Z,929.59
2023-02-27T01:12:08.435Z,929.59
2023-02-27T01:13:10.311Z,929.60
2023-02-27T01:14:08.341Z,929.60
2023-02-27T01:15:08.349Z,929.60
2023-02-27T01:16:08.370Z,929.61
2023-02-27T01:17:08.379Z,929.61
2023-02-27T01:18:08.322Z,929.62
2023-02-27T01:19:08.323Z,929.62
2023-02-27T01:20:08.296Z,929.62
2023-02-27T01:21:08.348Z,929.61
2023-02-27T01:22:08.305Z,929.61
2023-02-27T01:23:08.360Z,929.60
2023-02-27T01:24:08.261Z,929.60
2023-02-27T01:25:08.277Z,929.59
2023-02-27T01:26:08.239Z,929.59
2023-02-27T01:27:08.286Z,929.59
2023-02-27T01:28:08.235Z,929.61
2023-02-27T01:29:08.200Z,929.63
2023-02-27T01:30:08.248Z,929.67
2023-02-27T01:31:08.474Z,929.68
2023-02-27T01:32:08.317Z,929.70
2023-02-27T01:33:08.183Z,929.70
2023-02-27T01:34:08.186Z,929.70
2023-02-27T01:35:08.126Z,929.69
2023-02-27T01:36:08.163Z,929.69
2023-02-27T01:37:10.311Z,929.69
2023-02-27T01:38:08.113Z,929.70
2023-02-27T01:39:08.107Z,929.70
2023-02-27T01:40:08.052Z,929.70
2023-02-27T01:41:08.066Z,929.70
2023-02-27T01:42:08.073Z,929.70
2023-02-27T01:43:08.130Z,929.71
2023-02-27T01:44:08.035Z,929.71
2023-02-27T01:45:08.039Z,929.71
2023-02-27T01:46:08.116Z,929.71
2023-02-27T01:47:08.012Z,929.72
2023-02-27T01:48:08.014Z,929.74
2023-02-27T01:49:08.027Z,929.74
2023-02-27T01:50:08.084Z,929.74
2023-02-27T01:51:07.978Z,929.73
2023-02-27T01:52:07.949Z,929.73
2023-02-27T01:53:07.948Z,929.74
2023-02-27T01:54:07.959Z,929.75
2023-02-27T01:55:07.958Z,929.76
2023-02-27T01:56:07.950Z,929.78
2023-02-27T01:57:08.020Z,929.78
2023-02-27T01:58:07.875Z,929.78
2023-02-27T01:59:07.885Z,929.79
2023-02-27T02:00:08.142Z,929.78
2023-02-27T02:01:07.852Z,929.79
2023-02-27T02:02:07.965Z,929.78
2023-02-27T02:03:07.907Z,929.79
2023-02-27T02:04:07.816Z,929.79
2023-02-27T02:05:07.873Z,929.78
2023-02-27T02:06:08.040Z,929.78
2023-02-27T02:07:07.841Z,929.78
2023-02-27T02:08:07.894Z,929.78
2023-02-27T02:09:07.897Z,929.78
2023-02-27T02:10:07.811Z,929.78
2023-02-27T02:11:07.940Z,929.80
2023-02-27T02:12:07.816Z,929.83
2023-02-27T02:13:08.126Z,929.83
2023-02-27T02:14:07.825Z,929.85
2023-02-27T02:15:07.739Z,929.84
2023-02-27T02:16:07.733Z,929.86
2023-02-27T02:17:07.742Z,929.86
2023-02-27T02:18:07.752Z,929.83
2023-02-27T02:19:08.081Z,929.80
2023-02-27T02:20:07.766Z,929.78
2023-02-27T02:21:07.793Z,929.77
2023-02-27T02:22:07.685Z,929.74
2023-02-27T02:23:07.685Z,929.73
2023-02-27T02:24:07.666Z,929.70
2023-02-27T02:25:08.206Z,929.67
2023-02-27T02:26:07.724Z,929.67
2023-02-27T02:27:07.615Z,929.67
2023-02-27T02:28:07.621Z,929.67
2023-02-27T02:29:07.624Z,929.68
2023-02-27T02:30:07.631Z,929.69
2023-02-27T02:31:07.719Z,929.71
2023-02-27T02:32:07.593Z,929.71
2023-02-27T02:33:07.552Z,929.70
2023-02-27T02:34:07.568Z,929.71
2023-02-27T02:35:07.538Z,929.69
2023-02-27T02:36:07.541Z,929.69
2023-02-27T02:37:07.583Z,929.68
2023-02-27T02:38:07.479Z,929.67
2023-02-27T02:39:07.459Z,929.66
2023-02-27T02:40:07.427Z,929.64
2023-02-27T02:41:07.500Z,929.61
2023-02-27T02:42:07.501Z,929.59
2023-02-27T02:43:07.511Z,929.58
2023-02-27T02:44:07.427Z,929.54
2023-02-27T02:45:07.419Z,929.50
2023-02-27T02:46:07.398Z,929.52
2023-02-27T02:47:07.433Z,929.51
2023-02-27T02:48:07.384Z,929.51
2023-02-27T02:49:07.393Z,929.49
2023-02-27T02:50:07.354Z,929.51
2023-02-27T02:51:07.361Z,929.49
2023-02-27T02:52:07.383Z,929.48
2023-02-27T02:53:07.316Z,929.47
2023-02-27T02:54:07.322Z,929.47
2023-02-27T02:55:07.389Z,929.47
2023-02-27T02:56:07.293Z,929.46
2023-02-27T02:57:07.300Z,929.46
2023-02-27T02:58:07.252Z,929.45
2023-02-27T02:59:07.261Z,929.44
2023-02-27T03:00:07.257Z,929.44
2023-02-27T03:01:07.258Z,929.45
2023-02-27T03:02:07.200Z,929.46
2023-02-27T03:03:07.288Z,929.46
2023-02-27T03:04:07.229Z,929.45
2023-02-27T03:05:07.252Z,929.46
2023-02-27T03:06:07.204Z,929.45
2023-02-27T03:07:07.171Z,929.43
2023-02-27T03:08:07.177Z,929.42
2023-02-27T03:09:07.174Z,929.44
2023-02-27T03:10:07.133Z,929.45
2023-02-27T03:11:07.169Z,929.46
2023-02-27T03:12:07.146Z,929.47
2023-02-27T03:13:07.114Z,929.50
2023-02-27T03:14:07.086Z,929.50
2023-02-27T03:15:07.119Z,929.48
2023-02-27T03:16:07.136Z,929.49
2023-02-27T03:17:07.067Z,929.48
2023-02-27T03:18:07.136Z,929.48
2023-02-27T03:19:07.017Z,929.48
2023-02-27T03:20:07.046Z,929.48
2023-02-27T03:21:07.100Z,929.47
2023-02-27T03:22:07.003Z,929.45
2023-02-27T03:23:07.115Z,929.46
2023-02-27T03:24:06.972Z,929.46
2023-02-27T03:25:07.031Z,929.47
2023-02-27T03:26:06.979Z,929.47
2023-02-27T03:27:06.932Z,929.46
2023-02-27T03:28:06.945Z,929.45
2023-02-27T03:29:06.945Z,929.43
2023-02-27T03:30:06.911Z,929.40
2023-02-27T03:31:09.075Z,929.41
2023-02-27T03:32:07.015Z,929.40
2023-02-27T03:33:06.869Z,929.42
2023-02-27T03:34:06.877Z,929.43
2023-02-27T03:35:06.884Z,929.45
2023-02-27T03:36:06.946Z,929.44
2023-02-27T03:37:06.853Z,929.44
2023-02-27T03:38:06.806Z,929.44
2023-02-27T03:39:06.803Z,929.42
2023-02-27T03:40:06.842Z,929.41
2023-02-27T03:41:06.899Z,929.40
2023-02-27T03:42:06.887Z,929.39
2023-02-27T03:43:06.790Z,929.38
2023-02-27T03:44:06.734Z,929.39
2023-02-27T03:45:06.739Z,929.38
2023-02-27T03:46:06.796Z,929.39
2023-02-27T03:47:06.858Z,929.38
2023-02-27T03:48:06.725Z,929.36
2023-02-27T03:49:06.726Z,929.36
2023-02-27T03:50:06.699Z,929.34
2023-02-27T03:51:06.699Z,929.31
2023-02-27T03:52:06.699Z,929.29
2023-02-27T03:53:06.800Z,929.27
2023-02-27T03:54:06.696Z,929.23
2023-02-27T03:55:06.629Z,929.20
2023-02-27T03:56:06.623Z,929.17
2023-02-27T03:57:06.692Z,929.14
2023-02-27T03:58:06.646Z,929.12
2023-02-27T03:59:06.655Z,929.08
2023-02-27T04:00:06.611Z,929.08
2023-02-27T04:01:06.605Z,929.08
2023-02-27T04:02:06.746Z,929.09
2023-02-27T04:03:06.612Z,929.11
2023-02-27T04:04:06.610Z,929.13
2023-02-27T04:05:06.593Z,929.14
2023-02-27T04:06:06.538Z,929.15
2023-02-27T04:07:06.539Z,929.14
2023-02-27T04:08:06.508Z,929.12
2023-02-27T04:09:06.520Z,929.10
2023-02-27T04:10:06.527Z,929.08
2023-02-27T04:11:06.571Z,929.06
2023-02-27T04:12:06.532Z,929.04
2023-02-27T04:13:06.441Z,929.02
2023-02-27T04:14:06.447Z,929.02
2023-02-27T04:15:06.432Z,929.00
2023-02-27T04:16:06.547Z,929.01
2023-02-27T04:17:06.471Z,929.01
2023-02-27T04:18:06.382Z,929.03
2023-02-27T04:19:06.377Z,929.04
2023-02-27T04:20:06.381Z,929.04
2023-02-27T04:21:06.371Z,929.03
2023-02-27T04:22:06.370Z,929.02
2023-02-27T04:23:06.407Z,929.01
2023-02-27T04:24:06.349Z,928.98
2023-02-27T04:25:06.329Z,928.96
2023-02-27T04:26:06.336Z,928.96
2023-02-27T04:27:06.992Z,928.96
2023-02-27T04:28:06.307Z,928.96
2023-02-27T04:29:06.310Z,928.97
2023-02-27T04:30:06.255Z,928.96
2023-02-27T04:31:06.388Z,928.94
2023-02-27T04:32:06.419Z,928.92
2023-02-27T04:33:06.576Z,928.91
2023-02-27T04:34:06.220Z,928.90
2023-02-27T04:35:06.287Z,928.90
2023-02-27T04:36:06.188Z,928.91
2023-02-27T04:37:06.201Z,928.92
2023-02-27T04:38:06.203Z,928.94
2023-02-27T04:39:06.572Z,928.95
2023-02-27T04:40:06.189Z,928.95
2023-02-27T04:41:06.187Z,928.95
2023-02-27T04:42:06.147Z,928.95
2023-02-27T04:43:06.155Z,928.94
2023-02-27T04:44:06.145Z,928.94
2023-02-27T04:45:06.148Z,928.94
2023-02-27T04:46:06.157Z,928.94
2023-02-27T04:47:06.124Z,928.94
2023-02-27T04:48:06.076Z,928.94
2023-02-27T04:49:06.078Z,928.93
2023-02-27T04:50:06.082Z,928.92
2023-02-27T04:51:06.088Z,928.91
2023-02-27T04:52:06.090Z,928.90
2023-02-27T04:53:06.054Z,928.90
2023-02-27T04:54:06.013Z,928.90
2023-02-27T04:55:06.026Z,928.90
2023-02-27T04:56:06.025Z,928.89
2023-02-27T04:57:06.082Z,928.89
2023-02-27T04:58:06.001Z,928.87
2023-02-27T04:59:05.995Z,928.87
2023-02-27T05:00:06.023Z,928.87
2023-02-27T05:01:06.018Z,928.87
2023-02-27T05:02:06.057Z,928.88
2023-02-27T05:03:05.931Z,928.88
2023-02-27T05:04:05.931Z,928.88
2023-02-27T05:05:05.972Z,928.88
2023-02-27T05:06:05.896Z,928.88
2023-02-27T05:07:05.908Z,928.87
2023-02-27T05:08:05.911Z,928.87
2023-02-27T05:09:05.910Z,928.87
2023-02-27T05:10:05.898Z,928.88
2023-02-27T05:11:06.022Z,928.87
2023-02-27T05:12:05.820Z,928.85
2023-02-27T05:13:05.895Z,928.82
2023-02-27T05:14:05.836Z,928.79
2023-02-27T05:15:05.846Z,928.77
2023-02-27T05:16:05.895Z,928.75
2023-02-27T05:17:05.877Z,928.74
2023-02-27T05:18:05.864Z,928.73
2023-02-27T05:19:05.862Z,928.72
2023-02-27T05:20:05.783Z,928.72
2023-02-27T05:21:05.792Z,928.71
2023-02-27T05:22:05.748Z,928.70
2023-02-27T05:23:05.761Z,928.68
2023-02-27T05:24:05.756Z,928.67
2023-02-27T05:25:05.764Z,928.66
2023-02-27T05:26:05.768Z,928.66
2023-02-27T05:27:06.387Z,928.65
2023-02-27T05:28:06.604Z,928.66
2023-02-27T05:29:05.660Z,928.66
2023-02-27T05:30:05.639Z,928.66
2023-02-27T05:31:05.701Z,928.67
2023-02-27T05:32:05.827Z,928.68
2023-02-27T05:33:05.625Z,928.68
2023-02-27T05:34:05.619Z,928.68
2023-02-27T05:35:05.649Z,928.68
2023-02-27T05:36:05.615Z,928.67
2023-02-27T05:37:05.671Z,928.65
2023-02-27T05:38:05.591Z,928.65
2023-02-27T05:39:05.552Z,928.64
2023-02-27T05:40:05.758Z,928.66
2023-02-27T05:41:06.360Z,928.67
2023-02-27T05:42:05.596Z,928.68
2023-02-27T05:43:05.555Z,928.68
2023-02-27T05:44:05.584Z,928.68
2023-02-27T05:45:05.632Z,928.66
2023-02-27T05:46:05.577Z,928.63
2023-02-27T05:47:05.535Z,928.61
2023-02-27T05:48:05.561Z,928.59
2023-02-27T05:49:06.039Z,928.58
2023-02-27T05:50:05.542Z,928.57
2023-02-27T05:51:05.456Z,928.57
2023-02-27T05:52:05.454Z,928.57
2023-02-27T05:53:05.414Z,928.57
2023-02-27T05:54:05.476Z,928.58
2023-02-27T05:55:05.638Z,928.56
2023-02-27T05:56:05.483Z,928.55
2023-02-27T05:57:05.373Z,928.55
2023-02-27T05:58:05.358Z,928.55
2023-02-27T05:59:05.409Z,928.54
2023-02-27T06:00:05.418Z,928.54
2023-02-27T06:01:05.392Z,928.53
2023-02-27T06:02:05.448Z,928.53
2023-02-27T06:03:05.362Z,928.53
2023-02-27T06:04:05.336Z,928.54
2023-02-27T06:05:05.302Z,928.55
2023-02-27T06:06:05.666Z,928.56
2023-02-27T06:07:07.470Z,928.59
2023-02-27T06:08:05.380Z,928.62
2023-02-27T06:09:05.240Z,928.61
2023-02-27T06:10:05.278Z,928.61
2023-02-27T06:11:05.245Z,928.59
2023-02-27T06:12:05.252Z,928.59
2023-02-27T06:13:05.257Z,928.59
2023-02-27T06:14:05.288Z,928.59
2023-02-27T06:15:05.172Z,928.61
2023-02-27T06:16:05.180Z,928.61
2023-02-27T06:17:05.282Z,928.61
2023-02-27T06:18:05.199Z,928.60
2023-02-27T06:19:05.244Z,928.58
2023-02-27T06:20:05.149Z,928.55
2023-02-27T06:21:05.159Z,928.54
2023-02-27T06:22:05.106Z,928.54
2023-02-27T06:23:05.120Z,928.54
2023-02-27T06:24:05.133Z,928.53
2023-02-27T06:25:05.070Z,928.54
2023-02-27T06:26:05.040Z,928.54
2023-02-27T06:27:05.149Z,928.54
2023-02-27T06:28:05.048Z,928.54
2023-02-27T06:29:05.048Z,928.55
2023-02-27T06:30:05.067Z,928.55
2023-02-27T06:31:05.056Z,928.54
2023-02-27T06:32:05.003Z,928.53
2023-02-27T06:33:04.980Z,928.50
2023-02-27T06:34:05.026Z,928.50
2023-02-27T06:35:04.994Z,928.48
2023-02-27T06:36:05.088Z,928.46
2023-02-27T06:37:05.213Z,928.46
2023-02-27T06:38:04.951Z,928.44
2023-02-27T06:39:05.057Z,928.43
2023-02-27T06:40:04.921Z,928.42
2023-02-27T06:41:04.935Z,928.40
2023-02-27T06:42:04.883Z,928.40
2023-02-27T06:43:04.881Z,928.39
2023-02-27T06:44:04.891Z,928.38
2023-02-27T06:45:04.858Z,928.36
2023-02-27T06:46:04.940Z,928.34
2023-02-27T06:47:04.915Z,928.32
2023-02-27T06:48:04.823Z,928.30
2023-02-27T06:49:04.832Z,928.27
2023-02-27T06:50:04.826Z,928.26
2023-02-27T06:51:04.834Z,928.25
2023-02-27T06:52:04.795Z,928.26
2023-02-27T06:53:04.845Z,928.27
2023-02-27T06:54:04.754Z,928.29
2023-02-27T06:55:04.862Z,928.30
2023-02-27T06:56:04.767Z,928.31
2023-02-27T06:57:04.737Z,928.33
2023-02-27T06:58:04.783Z,928.35
2023-02-27T06:59:04.789Z,928.36
2023-02-27T07:00:04.695Z,928.37
2023-02-27T07:01:04.732Z,928.36
2023-02-27T07:02:04.678Z,928.36
2023-02-27T07:03:04.725Z,928.35
2023-02-27T07:04:04.719Z,928.34
2023-02-27T07:05:08.032Z,928.33
2023-02-27T07:06:04.697Z,928.32
2023-02-27T07:07:34.353Z,928.31
2023-02-27T07:08:04.650Z,928.30
2023-02-27T07:09:07.136Z,928.28
2023-02-27T07:10:04.627Z,928.27
2023-02-27T07:11:04.635Z,928.27
2023-02-27T07:12:04.651Z,928.28
2023-02-27T07:13:04.586Z,928.30
2023-02-27T07:14:04.595Z,928.32
2023-02-27T07:15:04.565Z,928.36
2023-02-27T07:16:04.638Z,928.38
2023-02-27T07:17:04.635Z,928.40
2023-02-27T07:18:04.523Z,928.42
2023-02-27T07:19:04.527Z,928.43
2023-02-27T07:20:04.506Z,928.43
2023-02-27T07:21:04.544Z,928.44
2023-02-27T07:22:04.515Z,928.44
2023-02-27T07:23:04.550Z,928.45
2023-02-27T07:24:04.461Z,928.46
2023-02-27T07:25:04.465Z,928.45
2023-02-27T07:26:04.436Z,928.45
2023-02-27T07:27:04.479Z,928.45
2023-02-27T07:28:04.479Z,928.46
2023-02-27T07:29:04.452Z,928.47
2023-02-27T07:30:04.409Z,928.49
2023-02-27T07:31:04.519Z,928.51
2023-02-27T07:32:04.532Z,928.53
2023-02-27T07:33:04.416Z,928.55
2023-02-27T07:34:04.550Z,928.56
2023-02-27T07:35:04.396Z,928.57
2023-02-27T07:36:04.428Z,928.59
2023-02-27T07:37:04.349Z,928.61
2023-02-27T07:38:04.308Z,928.62
2023-02-27T07:39:04.324Z,928.65
2023-02-27T07:40:04.264Z,928.66
2023-02-27T07:41:04.384Z,928.66
2023-02-27T07:42:04.378Z,928.67
2023-02-27T07:43:04.244Z,928.66
2023-02-27T07:44:04.254Z,928.65
2023-02-27T07:45:04.268Z,928.63
2023-02-27T07:46:04.341Z,928.63
2023-02-27T07:47:04.235Z,928.62
2023-02-27T07:48:04.653Z,928.62
2023-02-27T07:49:04.313Z,928.64
2023-02-27T07:50:04.710Z,928.64
2023-02-27T07:51:04.197Z,928.66
2023-02-27T07:52:04.151Z,928.68
2023-02-27T07:53:04.160Z,928.69
2023-02-27T07:54:04.173Z,928.70
2023-02-27T07:55:04.126Z,928.72
2023-02-27T07:56:04.124Z,928.73
2023-02-27T07:57:04.131Z,928.74
2023-02-27T07:58:04.082Z,928.74
2023-02-27T07:59:04.148Z,928.74
2023-02-27T08:00:04.353Z,928.74
2023-02-27T08:01:04.059Z,928.76
2023-02-27T08:02:04.186Z,928.78
2023-02-27T08:03:04.121Z,928.79
2023-02-27T08:04:04.064Z,928.81
2023-02-27T08:05:04.031Z,928.84
2023-02-27T08:06:04.050Z,928.86
2023-02-27T08:07:04.010Z,928.89
2023-02-27T08:08:04.065Z,928.90
2023-02-27T08:09:04.007Z,928.91
2023-02-27T08:10:04.014Z,928.92
2023-02-27T08:11:04.023Z,928.94
2023-02-27T08:12:04.028Z,928.94
2023-02-27T08:13:04.031Z,928.95
2023-02-27T08:14:03.938Z,928.96
2023-02-27T08:15:03.940Z,928.98
2023-02-27T08:16:03.989Z,929.00
2023-02-27T08:17:03.912Z,929.02
2023-02-27T08:18:03.922Z,929.03
2023-02-27T08:19:03.932Z,929.05
2023-02-27T08:20:03.882Z,929.05
2023-02-27T08:21:03.845Z,929.07
2023-02-27T08:22:03.890Z,929.06
2023-02-27T08:23:03.873Z,929.07
2023-02-27T08:24:03.922Z,929.08
2023-02-27T08:25:03.815Z,929.07
2023-02-27T08:26:03.822Z,929.07
2023-02-27T08:27:03.790Z,929.06
2023-02-27T08:28:03.790Z,929.05
2023-02-27T08:29:03.847Z,929.05
2023-02-27T08:30:03.761Z,929.04
2023-02-27T08:31:03.864Z,929.04
2023-02-27T08:32:03.790Z,929.04
2023-02-27T08:33:03.719Z,929.03
2023-02-27T08:34:10.170Z,929.03
2023-02-27T08:35:03.739Z,929.02
2023-02-27T08:36:03.728Z,929.01
2023-02-27T08:37:03.722Z,929.02
2023-02-27T08:38:03.762Z,929.04
2023-02-27T08:39:03.652Z,929.05
2023-02-27T08:40:03.694Z,929.06
2023-02-27T08:41:03.674Z,929.07
2023-02-27T08:42:03.622Z,929.09
2023-02-27T08:43:03.585Z,929.12
2023-02-27T08:44:03.649Z,929.14
2023-02-27T08:45:03.627Z,929.16
2023-02-27T08:46:03.669Z,929.19
2023-02-27T08:47:03.536Z,929.21
2023-02-27T08:48:03.488Z,929.22
2023-02-27T08:49:03.562Z,929.24
2023-02-27T08:50:03.604Z,929.23
2023-02-27T08:51:03.508Z,929.22
2023-02-27T08:52:03.565Z,929.22
2023-02-27T08:53:03.585Z,929.22
2023-02-27T08:54:03.535Z,929.24
2023-02-27T08:55:03.494Z,929.25
2023-02-27T08:56:03.557Z,929.27
2023-02-27T08:57:03.450Z,929.29
2023-02-27T08:58:03.512Z,929.30
2023-02-27T08:59:03.484Z,929.30
2023-02-27T09:00:03.597Z,929.31
2023-02-27T09:01:03.717Z,929.32
2023-02-27T09:02:03.689Z,929.35
2023-02-27T09:03:03.800Z,929.38
2023-02-27T09:04:03.448Z,929.40
2023-02-27T09:05:03.352Z,929.42
2023-02-27T09:06:03.459Z,929.43
2023-02-27T09:07:03.372Z,929.44
2023-02-27T09:08:03.474Z,929.44
2023-02-27T09:09:04.023Z,929.44
2023-02-27T09:10:03.336Z,929.44
2023-02-27T09:11:03.242Z,929.44
2023-02-27T09:12:03.305Z,929.44
2023-02-27T09:13:03.252Z,929.45
2023-02-27T09:14:03.263Z,929.47
2023-02-27T09:15:03.262Z,929.48
2023-02-27T09:16:03.279Z,929.49
2023-02-27T09:17:03.222Z,929.49
2023-02-27T09:18:03.392Z,929.50
2023-02-27T09:19:03.204Z,929.52
2023-02-27T09:20:03.189Z,929.54
2023-02-27T09:21:03.214Z,929.57
2023-02-27T09:22:03.208Z,929.60
2023-02-27T09:23:03.113Z,929.61
2023-02-27T09:24:17.079Z,929.63
2023-02-27T09:25:03.137Z,929.65
2023-02-27T09:26:03.269Z,929.68
2023-02-27T09:27:03.139Z,929.69
2023-02-27T09:28:03.100Z,929.69
2023-02-27T09:29:03.053Z,929.68
2023-02-27T09:30:03.062Z,929.67
2023-02-27T09:31:03.067Z,929.67
2023-02-27T09:32:03.199Z,929.67
2023-02-27T09:33:03.162Z,929.68
2023-02-27T09:34:03.039Z,929.69
2023-02-27T09:35:02.987Z,929.69
2023-02-27T09:36:03.104Z,929.70
2023-02-27T09:37:02.998Z,929.70
2023-02-27T09:38:03.007Z,929.71
2023-02-27T09:39:02.970Z,929.72
2023-02-27T09:40:02.972Z,929.72
2023-02-27T09:41:02.939Z,929.72
2023-02-27T09:42:03.109Z,929.72
2023-02-27T09:43:03.041Z,929.74
2023-02-27T09:44:03.205Z,929.75
2023-02-27T09:45:05.773Z,929.76
2023-02-27T09:46:03.080Z,929.77
2023-02-27T09:47:02.874Z,929.78
2023-02-27T09:48:02.876Z,929.79
2023-02-27T09:49:02.945Z,929.79
2023-02-27T09:50:02.879Z,929.79
2023-02-27T09:51:02.846Z,929.79
2023-02-27T09:52:02.968Z,929.79
2023-02-27T09:53:02.800Z,929.79
2023-02-27T09:54:02.862Z,929.79
2023-02-27T09:55:02.871Z,929.79
2023-02-27T09:56:02.821Z,929.78
2023-02-27T09:57:02.796Z,929.78
2023-02-27T09:58:02.797Z,929.78
2023-02-27T09:59:02.740Z,929.79
2023-02-27T10:00:02.747Z,929.78
2023-02-27T10:01:02.757Z,929.78
2023-02-27T10:02:02.875Z,929.77
2023-02-27T10:03:02.762Z,929.77
2023-02-27T10:04:02.721Z,929.76
2023-02-27T10:05:02.746Z,929.75
2023-02-27T10:06:02.692Z,929.75
2023-02-27T10:07:02.793Z,929.76
2023-02-27T10:08:02.671Z,929.77
2023-02-27T10:09:02.702Z,929.78
2023-02-27T10:10:02.665Z,929.79
2023-02-27T10:11:02.689Z,929.81
2023-02-27T10:12:02.637Z,929.82
2023-02-27T10:13:02.645Z,929.84
2023-02-27T10:14:02.590Z,929.85
2023-02-27T10:15:02.621Z,929.88
2023-02-27T10:16:02.607Z,929.89
2023-02-27T10:17:02.587Z,929.89
2023-02-27T10:18:13.532Z,929.89
2023-02-27T10:19:02.574Z,929.89
2023-02-27T10:20:02.586Z,929.89
2023-02-27T10:21:02.575Z,929.89
2023-02-27T10:22:02.600Z,929.90
2023-02-27T10:23:02.599Z,929.91
2023-02-27T10:24:02.568Z,929.93
2023-02-27T10:25:02.513Z,929.94
2023-02-27T10:26:02.518Z,929.97
2023-02-27T10:27:02.493Z,929.98
2023-02-27T10:28:02.516Z,930.00
2023-02-27T10:29:02.458Z,930.02
2023-02-27T10:30:02.509Z,930.04
2023-02-27T10:31:02.577Z,930.07
2023-02-27T10:32:02.532Z,930.10
2023-02-27T10:33:02.422Z,930.12
2023-02-27T10:34:02.432Z,930.16
2023-02-27T10:35:02.450Z,930.19
2023-02-27T10:36:03.398Z,930.22
2023-02-27T10:37:02.691Z,930.25
2023-02-27T10:38:02.410Z,930.27
2023-02-27T10:39:02.365Z,930.29
2023-02-27T10:40:02.407Z,930.31
2023-02-27T10:41:02.384Z,930.32
2023-02-27T10:42:02.411Z,930.31
2023-02-27T10:43:04.145Z,930.32
2023-02-27T10:44:02.445Z,930.32
2023-02-27T10:45:02.326Z,930.33
2023-02-27T10:46:02.505Z,930.34
2023-02-27T10:47:02.327Z,930.34
2023-02-27T10:48:02.325Z,930.35
2023-02-27T10:49:02.341Z,930.35
2023-02-27T10:50:02.344Z,930.34
2023-02-27T10:51:02.257Z,930.33
2023-02-27T10:52:02.208Z,930.33
2023-02-27T10:53:02.249Z,930.31
2023-02-27T10:54:02.215Z,930.32
2023-02-27T10:55:02.279Z,930.32
2023-02-27T10:56:02.264Z,930.33
2023-02-27T10:57:02.284Z,930.35
2023-02-27T10:58:02.189Z,930.35
2023-02-27T10:59:02.196Z,930.37
2023-02-27T11:00:02.199Z,930.36
2023-02-27T11:01:02.213Z,930.37
2023-02-27T11:02:02.267Z,930.40
2023-02-27T11:03:02.530Z,930.40
2023-02-27T11:04:02.133Z,930.43
2023-02-27T11:05:02.141Z,930.45
2023-02-27T11:06:02.153Z,930.46
2023-02-27T11:07:02.075Z,930.48
2023-02-27T11:08:02.261Z,930.48
2023-02-27T11:09:02.035Z,930.48
2023-02-27T11:10:02.051Z,930.49
2023-02-27T11:11:02.051Z,930.51
2023-02-27T11:12:02.083Z,930.52
2023-02-27T11:13:02.094Z,930.53
2023-02-27T11:14:01.943Z,930.54
2023-02-27T11:15:01.999Z,930.54
2023-02-27T11:16:02.096Z,930.56
2023-02-27T11:17:02.040Z,930.58
2023-02-27T11:18:02.030Z,930.60
2023-02-27T11:19:01.938Z,930.63
2023-02-27T11:20:02.036Z,930.65
2023-02-27T11:21:01.914Z,930.67
2023-02-27T11:22:01.948Z,930.69
2023-02-27T11:23:02.268Z,930.70
2023-02-27T11:24:01.974Z,930.70
2023-02-27T11:25:04.128Z,930.69
2023-02-27T11:26:01.871Z,930.67
2023-02-27T11:27:01.825Z,930.66
2023-02-27T11:28:01.859Z,930.67
2023-02-27T11:29:01.859Z,930.67
2023-02-27T11:30:01.813Z,930.68
2023-02-27T11:31:01.977Z,930.68
2023-02-27T11:32:01.847Z,930.70
2023-02-27T11:33:01.836Z,930.72
2023-02-27T11:34:01.839Z,930.72
2023-02-27T11:35:01.889Z,930.74
2023-02-27T11:36:01.979Z,930.76
2023-02-27T11:37:01.802Z,930.77
2023-02-27T11:38:01.808Z,930.78
2023-02-27T11:39:01.799Z,930.79
2023-02-27T11:40:01.752Z,930.81
2023-02-27T11:41:02.087Z,930.82
2023-02-27T11:42:01.727Z,930.83
2023-02-27T11:43:02.323Z,930.84
2023-02-27T11:44:01.677Z,930.85
2023-02-27T11:45:01.784Z,930.88
2023-02-27T11:46:04.685Z,930.91
2023-02-27T11:47:01.727Z,930.93
2023-02-27T11:48:01.770Z,930.95
2023-02-27T11:49:01.712Z,930.97
2023-02-27T11:50:01.760Z,931.00
2023-02-27T11:51:01.651Z,931.01
2023-02-27T11:52:01.725Z,931.04
2023-02-27T11:53:01.702Z,931.05
2023-02-27T11:54:01.671Z,931.05
2023-02-27T11:55:01.538Z,931.07
2023-02-27T11:56:01.520Z,931.06
2023-02-27T11:57:01.535Z,931.08
2023-02-27T11:58:01.518Z,931.11
2023-02-27T11:59:01.534Z,931.10
2023-02-27T12:00:01.581Z,931.09
2023-02-27T12:01:02.309Z,931.09
2023-02-27T12:02:01.549Z,931.10
2023-02-27T12:03:01.514Z,931.11
2023-02-27T12:04:01.595Z,931.12
2023-02-27T12:05:01.470Z,931.12
2023-02-27T12:06:01.471Z,931.14
2023-02-27T12:07:01.435Z,931.15
2023-02-27T12:08:01.434Z,931.16
2023-02-27T12:09:01.435Z,931.17
2023-02-27T12:10:01.433Z,931.19
2023-02-27T12:11:13.237Z,931.18
2023-02-27T12:12:01.402Z,931.21
2023-02-27T12:13:01.366Z,931.21
2023-02-27T12:14:03.630Z,931.21
2023-02-27T12:15:01.536Z,931.22
2023-02-27T12:16:01.488Z,931.22
2023-02-27T12:17:02.517Z,931.22
2023-02-27T12:18:01.286Z,931.20
2023-02-27T12:19:01.354Z,931.20
2023-02-27T12:20:01.360Z,931.21
2023-02-27T12:21:01.291Z,931.22
2023-02-27T12:22:01.279Z,931.24
2023-02-27T12:23:01.281Z,931.25
2023-02-27T12:24:01.228Z,931.28
2023-02-27T12:25:01.231Z,931.29
2023-02-27T12:26:01.957Z,931.30
2023-02-27T12:27:01.205Z,931.30
2023-02-27T12:28:01.203Z,931.31